createdAt,value
2022-09-01T00:00:02.875Z,75.32
2022-09-01T00:02:30.223Z,74.76
2022-09-01T00:04:59.946Z,74.25
2022-09-01T00:07:30.417Z,74.62
2022-09-01T00:09:58.487Z,74.87
2022-09-01T00:12:25.836Z,75.30
2022-09-01T00:14:53.394Z,74.86
2022-09-01T00:17:20.166Z,74.82
2022-09-01T00:19:46.880Z,74.68
2022-09-01T00:22:13.573Z,75.42
2022-09-01T00:24:40.241Z,76.31
2022-09-01T00:27:06.918Z,76.47
2022-09-01T00:29:34.382Z,76.10
2022-09-01T00:32:01.087Z,76.20
2022-09-01T00:34:27.829Z,76.49
2022-09-01T00:36:54.683Z,76.93
2022-09-01T00:39:21.384Z,77.74
2022-09-01T00:41:50.435Z,79.45
2022-09-01T00:44:23.368Z,80.51
2022-09-01T00:46:55.085Z,80.43
2022-09-01T00:49:38.875Z,79.35
2022-09-01T00:52:19.668Z,79.29
2022-09-01T00:54:53.843Z,79.08
2022-09-01T00:57:20.613Z,80.25
2022-09-01T00:59:52.577Z,80.81
2022-09-01T01:02:19.204Z,80.22
2022-09-01T01:04:46.338Z,80.59
2022-09-01T01:07:13.430Z,81.06
2022-09-01T01:09:44.432Z,81.54
2022-09-01T01:12:18.410Z,81.70
2022-09-01T01:14:50.325Z,81.35
2022-09-01T01:17:17.921Z,80.46
2022-09-01T01:20:10.819Z,79.95
2022-09-01T01:23:03.673Z,78.86
2022-09-01T01:25:52.173Z,78.37
2022-09-01T01:28:22.395Z,77.13
2022-09-01T01:30:53.114Z,76.44
2022-09-01T01:33:25.973Z,76.98
2022-09-01T01:35:56.238Z,75.76
2022-09-01T01:38:23.813Z,76.12
2022-09-01T01:40:51.940Z,77.26
2022-09-01T01:43:21.873Z,77.52
2022-09-01T01:45:52.175Z,77.56
2022-09-01T01:48:24.601Z,77.94
2022-09-01T01:50:54.425Z,77.43
2022-09-01T01:53:22.263Z,76.75
2022-09-01T01:55:49.747Z,76.25
2022-09-01T01:58:19.906Z,76.01
2022-09-01T02:00:49.352Z,78.31
2022-09-01T02:03:19.140Z,78.29
2022-09-01T02:05:48.431Z,79.18
2022-09-01T02:08:16.031Z,78.69
2022-09-01T02:10:46.241Z,78.49
2022-09-01T02:13:18.602Z,77.73
2022-09-01T02:15:48.648Z,78.62
2022-09-01T02:18:22.027Z,78.78
2022-09-01T02:20:50.728Z,78.47
2022-09-01T02:23:23.321Z,79.37
2022-09-01T02:26:15.046Z,80.18
2022-09-01T02:28:42.679Z,79.61
2022-09-01T02:31:11.417Z,77.04
2022-09-01T02:33:41.040Z,76.74
2022-09-01T02:36:13.312Z,78.25
2022-09-01T02:38:43.008Z,79.28
2022-09-01T02:41:14.522Z,79.58
2022-09-01T02:43:43.591Z,79.91
2022-09-01T02:46:10.415Z,79.86
2022-09-01T02:48:40.393Z,79.39
2022-09-01T02:51:14.214Z,79.38
2022-09-01T02:53:42.855Z,79.78
2022-09-01T02:56:15.462Z,79.80
2022-09-01T02:58:48.001Z,80.74
2022-09-01T03:01:34.987Z,80.37
2022-09-01T03:04:05.765Z,80.08
2022-09-01T03:06:34.550Z,79.34
2022-09-01T03:09:03.226Z,79.73
2022-09-01T03:11:32.694Z,79.99
2022-09-01T03:13:59.810Z,80.32
2022-09-01T03:16:26.898Z,80.50
2022-09-01T03:18:53.790Z,80.32
2022-09-01T03:21:21.159Z,80.16
2022-09-01T03:23:51.536Z,79.77
2022-09-01T03:26:22.133Z,79.47
2022-09-01T03:28:53.543Z,79.17
2022-09-01T03:31:20.889Z,78.63
2022-09-01T03:33:47.972Z,79.10
2022-09-01T03:36:19.382Z,79.30
2022-09-01T03:38:50.988Z,80.15
2022-09-01T03:41:22.458Z,80.46
2022-09-01T03:43:50.878Z,79.98
2022-09-01T03:46:27.423Z,79.15
2022-09-01T03:48:58.675Z,78.69
2022-09-01T03:51:26.037Z,79.75
2022-09-01T03:53:55.213Z,78.64
2022-09-01T03:56:27.428Z,77.22
2022-09-01T03:58:59.366Z,77.32
2022-09-01T04:01:28.636Z,75.85
2022-09-01T04:03:55.539Z,75.40
2022-09-01T04:06:24.376Z,75.46
2022-09-01T04:08:57.847Z,74.58
2022-09-01T04:11:25.384Z,75.00
2022-09-01T04:13:52.719Z,75.09
2022-09-01T04:16:43.599Z,74.42
2022-09-01T04:19:20.664Z,76.09
2022-09-01T04:21:52.304Z,76.38
2022-09-01T04:24:19.402Z,75.25
2022-09-01T04:26:49.760Z,74.80
2022-09-01T04:29:27.445Z,73.62
2022-09-01T04:31:56.534Z,72.99
2022-09-01T04:34:24.298Z,73.03
2022-09-01T04:36:54.578Z,73.00
2022-09-01T04:39:22.517Z,72.76
2022-09-01T04:41:50.823Z,73.06
2022-09-01T04:44:19.329Z,72.55
2022-09-01T04:46:47.982Z,71.96
2022-09-01T04:49:19.631Z,72.75
2022-09-01T04:51:53.326Z,72.88
2022-09-01T04:54:21.664Z,72.77
2022-09-01T04:56:51.247Z,72.48
2022-09-01T04:59:21.913Z,73.11
2022-09-01T05:01:50.812Z,72.73
2022-09-01T05:04:22.785Z,72.78
2022-09-01T05:06:56.067Z,72.12
2022-09-01T05:09:25.347Z,72.70
2022-09-01T05:11:53.133Z,73.21
2022-09-01T05:14:21.596Z,72.71
2022-09-01T05:16:50.046Z,73.03
2022-09-01T05:19:21.000Z,72.56
2022-09-01T05:21:49.665Z,72.27
2022-09-01T05:24:21.921Z,72.17
2022-09-01T05:26:51.069Z,72.65
2022-09-01T05:29:18.230Z,72.70
2022-09-01T05:31:50.414Z,72.57
2022-09-01T05:34:26.493Z,72.30
2022-09-01T05:36:58.214Z,72.49
2022-09-01T05:39:27.301Z,72.62
2022-09-01T05:41:54.213Z,72.79
2022-09-01T05:44:23.577Z,72.85
2022-09-01T05:46:50.714Z,72.92
2022-09-01T05:49:18.935Z,72.82
2022-09-01T05:51:57.611Z,73.47
2022-09-01T05:54:27.520Z,73.36
2022-09-01T05:57:12.804Z,73.54
2022-09-01T05:59:47.053Z,73.74
2022-09-01T06:02:13.938Z,73.91
2022-09-01T06:04:44.382Z,73.99
2022-09-01T06:07:18.493Z,74.08
2022-09-01T06:09:53.127Z,73.71
2022-09-01T06:12:20.433Z,73.83
2022-09-01T06:14:48.888Z,74.32
2022-09-01T06:17:22.224Z,73.79
2022-09-01T06:19:49.095Z,73.46
2022-09-01T06:22:17.133Z,73.01
2022-09-01T06:24:45.585Z,73.23
2022-09-01T06:27:20.368Z,73.59
2022-09-01T06:29:49.369Z,73.19
2022-09-01T06:32:17.046Z,72.42
2022-09-01T06:34:44.700Z,72.38
2022-09-01T06:37:13.335Z,72.16
2022-09-01T06:39:40.219Z,71.94
2022-09-01T06:42:06.926Z,72.18
2022-09-01T06:44:40.332Z,72.32
2022-09-01T06:47:09.123Z,71.95
2022-09-01T06:49:36.743Z,71.67
2022-09-01T06:52:05.145Z,71.59
2022-09-01T06:54:35.684Z,71.86
2022-09-01T06:59:52.652Z,71.09
2022-09-01T07:02:21.484Z,70.47
2022-09-01T07:05:08.436Z,69.46
2022-09-01T07:10:24.111Z,68.41
2022-09-01T07:13:09.010Z,68.49
2022-09-01T07:18:28.661Z,67.30
2022-09-01T07:21:07.141Z,67.13
2022-09-01T07:24:07.797Z,66.43
2022-09-01T07:26:30.879Z,66.82
2022-09-01T07:29:01.822Z,66.67
2022-09-01T07:39:55.327Z,65.45
2022-09-01T07:45:28.227Z,64.71
2022-09-01T07:47:55.588Z,65.47
2022-09-01T07:50:38.735Z,65.23
2022-09-01T07:53:08.694Z,64.92
2022-09-01T07:55:35.630Z,65.34
2022-09-01T07:58:02.314Z,65.08
2022-09-01T08:00:31.387Z,64.57
2022-09-01T08:02:59.243Z,65.47
2022-09-01T08:05:27.365Z,65.11
2022-09-01T08:07:54.781Z,64.44
2022-09-01T08:10:21.736Z,64.84
2022-09-01T08:12:56.308Z,65.33
2022-09-01T08:15:41.480Z,64.24
2022-09-01T08:18:14.513Z,64.69
2022-09-01T08:20:47.217Z,64.19
2022-09-01T08:23:18.468Z,64.73
2022-09-01T08:25:46.843Z,65.16
2022-09-01T08:28:15.516Z,64.67
2022-09-01T08:30:47.119Z,64.36
2022-09-01T08:33:18.960Z,63.71
2022-09-01T08:35:48.302Z,62.90
2022-09-01T08:38:15.516Z,63.82
2022-09-01T08:40:51.479Z,64.17
2022-09-01T08:43:31.274Z,64.41
2022-09-01T08:46:09.431Z,64.21
2022-09-01T08:51:40.492Z,64.36
2022-09-01T08:54:14.502Z,64.89
2022-09-01T08:56:46.179Z,65.00
2022-09-01T08:59:15.041Z,64.90
2022-09-01T09:01:50.832Z,64.19
2022-09-01T09:04:20.427Z,64.73
2022-09-01T09:06:53.098Z,65.11
2022-09-01T09:09:32.451Z,65.14
2022-09-01T09:12:10.783Z,64.10
2022-09-01T09:15:08.596Z,63.92
2022-09-01T09:17:44.090Z,64.03
2022-09-01T09:20:11.125Z,64.37
2022-09-01T09:22:38.860Z,64.55
2022-09-01T09:25:17.526Z,63.47
2022-09-01T09:28:00.603Z,63.98
2022-09-01T09:30:31.481Z,64.07
2022-09-01T09:35:57.623Z,64.83
2022-09-01T09:38:29.414Z,65.17
2022-09-01T09:43:56.365Z,64.43
2022-09-01T09:46:32.291Z,65.12
2022-09-01T09:49:11.228Z,65.55
2022-09-01T09:51:40.689Z,66.71
2022-09-01T09:54:16.184Z,67.16
2022-09-01T09:56:46.561Z,67.51
2022-09-01T09:59:34.145Z,67.72
2022-09-01T10:02:27.403Z,68.12
2022-09-01T10:04:56.012Z,68.09
2022-09-01T10:07:35.558Z,67.79
2022-09-01T10:10:08.203Z,68.28
2022-09-01T10:12:35.499Z,68.69
2022-09-01T10:15:12.735Z,68.40
2022-09-01T10:17:44.492Z,72.95
2022-09-01T10:20:21.274Z,73.72
2022-09-01T10:22:50.712Z,74.09
2022-09-01T10:25:33.475Z,74.26
2022-09-01T10:28:10.077Z,75.88
2022-09-01T10:30:42.809Z,77.83
2022-09-01T10:33:20.068Z,76.86
2022-09-01T10:35:51.323Z,77.24
2022-09-01T10:38:23.118Z,77.61
2022-09-01T10:41:07.467Z,78.40
2022-09-01T10:43:45.295Z,78.46
2022-09-01T10:46:38.848Z,74.11
2022-09-01T10:49:28.509Z,76.01
2022-09-01T10:52:03.257Z,76.33
2022-09-01T10:54:45.235Z,75.86
2022-09-01T10:57:45.552Z,72.57
2022-09-01T11:00:40.474Z,71.69
2022-09-01T11:06:14.395Z,71.69
2022-09-01T11:08:48.232Z,70.22
2022-09-01T11:11:32.616Z,70.94
2022-09-01T11:13:59.610Z,71.87
2022-09-01T11:19:23.245Z,70.82
2022-09-01T11:22:26.385Z,71.20
2022-09-01T11:25:41.387Z,67.31
2022-09-01T11:28:17.892Z,67.59
2022-09-01T11:30:53.069Z,66.89
2022-09-01T11:34:07.773Z,65.15
2022-09-01T11:36:48.690Z,66.54
2022-09-01T11:39:19.192Z,65.98
2022-09-01T11:41:48.256Z,64.97
2022-09-01T11:44:55.403Z,64.25
2022-09-01T11:47:30.653Z,64.74
2022-09-01T11:50:00.976Z,65.25
2022-09-01T11:52:31.973Z,64.10
2022-09-01T11:54:59.566Z,63.65
2022-09-01T11:57:35.592Z,63.75
2022-09-01T12:00:09.661Z,64.68
2022-09-01T12:02:44.985Z,65.14
2022-09-01T12:05:33.504Z,64.70
2022-09-01T12:08:04.096Z,64.47
2022-09-01T12:10:36.801Z,65.18
2022-09-01T12:13:09.249Z,65.22
2022-09-01T12:15:55.228Z,66.19
2022-09-01T12:18:47.443Z,65.59
2022-09-01T12:21:24.023Z,65.63
2022-09-01T12:23:51.344Z,65.08
2022-09-01T12:26:26.696Z,64.64
2022-09-01T12:28:53.585Z,64.25
2022-09-01T12:31:23.818Z,63.53
2022-09-01T12:33:52.203Z,62.55
2022-09-01T12:36:35.923Z,63.98
2022-09-01T12:39:17.935Z,63.47
2022-09-01T12:41:48.449Z,61.32
2022-09-01T12:44:38.178Z,59.77
2022-09-01T12:47:14.127Z,59.78
2022-09-01T12:49:47.937Z,58.95
2022-09-01T12:52:27.518Z,59.74
2022-09-01T12:55:00.211Z,60.21
2022-09-01T12:57:34.412Z,58.23
2022-09-01T13:00:20.586Z,57.70
2022-09-01T13:02:53.366Z,57.91
2022-09-01T13:05:30.625Z,58.77
2022-09-01T13:08:01.135Z,59.54
2022-09-01T13:10:33.234Z,60.09
2022-09-01T13:13:02.020Z,60.82
2022-09-01T13:15:28.966Z,60.95
2022-09-01T13:17:55.665Z,60.78
2022-09-01T13:20:22.362Z,61.81
2022-09-01T13:22:49.308Z,61.95
2022-09-01T13:25:20.415Z,61.47
2022-09-01T13:27:48.400Z,61.34
2022-09-01T13:30:17.839Z,60.34
2022-09-01T13:35:33.544Z,61.16
2022-09-01T13:38:00.136Z,62.26
2022-09-01T13:40:28.850Z,61.19
2022-09-01T13:42:55.526Z,61.68
2022-09-01T13:45:25.695Z,61.60
2022-09-01T13:53:27.233Z,61.18
2022-09-01T13:55:54.279Z,60.22
2022-09-01T13:58:21.076Z,60.10
2022-09-01T14:00:48.521Z,60.63
2022-09-01T14:03:23.061Z,60.18
2022-09-01T14:05:50.601Z,59.46
2022-09-01T14:08:20.951Z,59.38
2022-09-01T14:10:51.264Z,59.73
2022-09-01T14:13:21.237Z,59.31
2022-09-01T14:15:49.314Z,58.25
2022-09-01T14:18:16.578Z,57.10
2022-09-01T14:20:45.493Z,56.78
2022-09-01T14:23:13.878Z,57.09
2022-09-01T14:25:48.697Z,58.23
2022-09-01T14:28:20.382Z,58.76
2022-09-01T14:33:16.823Z,59.02
2022-09-01T14:35:47.000Z,58.79
2022-09-01T14:38:15.024Z,58.44
2022-09-01T14:40:43.248Z,58.32
2022-09-01T14:43:12.987Z,58.68
2022-09-01T14:45:41.031Z,58.96
2022-09-01T14:48:09.264Z,59.36
2022-09-01T14:50:41.355Z,57.63
2022-09-01T14:53:08.812Z,56.58
2022-09-01T14:55:35.712Z,58.14
2022-09-01T14:58:02.536Z,58.57
2022-09-01T15:00:30.310Z,58.21
2022-09-01T15:02:58.202Z,58.52
2022-09-01T15:05:25.581Z,58.54
2022-09-01T15:07:54.156Z,58.71
2022-09-01T15:10:25.169Z,57.41
2022-09-01T15:12:54.686Z,57.77
2022-09-01T15:15:21.938Z,57.76
2022-09-01T15:17:48.712Z,58.42
2022-09-01T15:20:33.972Z,58.40
2022-09-01T15:23:02.023Z,59.19
2022-09-01T15:25:28.754Z,60.49
2022-09-01T15:27:55.517Z,60.67
2022-09-01T15:30:23.486Z,61.11
2022-09-01T15:32:52.393Z,61.27
2022-09-01T15:35:20.207Z,61.87
2022-09-01T15:37:51.532Z,62.12
2022-09-01T15:40:20.130Z,62.66
2022-09-01T15:42:47.237Z,62.70
2022-09-01T15:45:24.507Z,62.71
2022-09-01T15:47:51.262Z,62.30
2022-09-01T15:50:22.150Z,62.59
2022-09-01T15:52:53.371Z,61.92
2022-09-01T15:55:23.560Z,61.42
2022-09-01T15:57:51.078Z,60.71
2022-09-01T16:00:18.722Z,61.16
2022-09-01T16:02:45.435Z,60.56
2022-09-01T16:05:12.872Z,60.79
2022-09-01T16:07:40.618Z,59.33
2022-09-01T16:10:12.129Z,59.30
2022-09-01T16:12:44.052Z,59.30
2022-09-01T16:15:12.909Z,59.30
2022-09-01T16:17:48.152Z,59.43
2022-09-01T16:20:21.929Z,60.13
2022-09-01T16:22:55.448Z,60.42
2022-09-01T16:25:31.882Z,60.18
2022-09-01T16:28:09.007Z,58.60
2022-09-01T16:30:36.086Z,59.36
2022-09-01T16:33:04.958Z,58.43
2022-09-01T16:35:47.993Z,58.07
2022-09-01T16:38:29.662Z,58.58
2022-09-01T16:41:05.163Z,58.46
2022-09-01T16:43:47.290Z,59.42
2022-09-01T16:46:29.833Z,59.29
2022-09-01T16:49:06.069Z,59.88
2022-09-01T16:51:47.762Z,60.00
2022-09-01T16:54:28.147Z,60.50
2022-09-01T16:57:16.321Z,60.55
2022-09-01T17:02:59.802Z,61.36
2022-09-01T17:05:34.473Z,61.97
2022-09-01T17:08:29.562Z,61.89
2022-09-01T17:11:18.682Z,61.73
2022-09-01T17:13:51.323Z,61.69
2022-09-01T17:16:39.544Z,61.51
2022-09-01T17:19:18.934Z,61.79
2022-09-01T17:21:53.935Z,61.95
2022-09-01T17:24:29.579Z,62.10
2022-09-01T17:27:04.913Z,61.99
2022-09-01T17:29:45.048Z,62.51
2022-09-01T17:32:34.771Z,61.67
2022-09-01T17:35:35.392Z,61.82
2022-09-01T17:38:18.411Z,62.16
2022-09-01T17:41:07.372Z,62.39
2022-09-01T17:44:07.168Z,61.82
2022-09-01T17:46:40.006Z,61.87
2022-09-01T17:49:09.924Z,62.09
2022-09-01T17:51:58.479Z,62.38
2022-09-01T17:54:37.499Z,62.55
2022-09-01T17:57:13.229Z,62.60
2022-09-01T18:00:06.472Z,62.54
2022-09-01T18:02:58.203Z,62.89
2022-09-01T18:05:26.635Z,63.72
2022-09-01T18:08:21.089Z,63.55
2022-09-01T18:10:55.742Z,63.85
2022-09-01T18:13:51.759Z,63.71
2022-09-01T18:16:20.729Z,64.05
2022-09-01T18:18:53.201Z,64.92
2022-09-01T18:21:34.562Z,64.79
2022-09-01T18:24:43.646Z,65.22
2022-09-01T18:27:12.409Z,65.37
2022-09-01T18:29:39.189Z,65.38
2022-09-01T18:32:20.801Z,64.94
2022-09-01T18:35:02.429Z,64.89
2022-09-01T18:37:48.499Z,64.76
2022-09-01T18:40:30.446Z,64.74
2022-09-01T18:43:18.617Z,64.65
2022-09-01T18:46:11.610Z,64.87
2022-09-01T18:49:09.842Z,65.42
2022-09-01T18:52:12.547Z,65.10
2022-09-01T18:54:53.276Z,65.14
2022-09-01T18:57:24.306Z,65.00
2022-09-01T19:00:03.114Z,65.52
2022-09-01T19:03:10.194Z,65.33
2022-09-01T19:06:07.695Z,65.37
2022-09-01T19:08:48.469Z,65.61
2022-09-01T19:11:21.522Z,65.60
2022-09-01T19:14:09.504Z,65.41
2022-09-01T19:17:03.667Z,66.03
2022-09-01T19:19:54.381Z,65.46
2022-09-01T19:22:51.479Z,65.99
2022-09-01T19:25:38.898Z,65.74
2022-09-01T19:28:18.927Z,65.61
2022-09-01T19:30:57.291Z,65.88
2022-09-01T19:33:29.205Z,65.70
2022-09-01T19:36:03.064Z,65.84
2022-09-01T19:38:30.411Z,66.54
2022-09-01T19:41:14.467Z,66.14
2022-09-01T19:43:43.096Z,66.69
2022-09-01T19:46:20.038Z,66.67
2022-09-01T19:49:17.242Z,66.84
2022-09-01T19:52:09.132Z,67.12
2022-09-01T19:54:51.871Z,67.08
2022-09-01T19:57:25.316Z,67.55
2022-09-01T20:00:03.046Z,67.39
2022-09-01T20:02:35.626Z,67.56
2022-09-01T20:05:08.913Z,67.49
2022-09-01T20:07:51.200Z,67.56
2022-09-01T20:10:37.117Z,67.74
2022-09-01T20:13:15.869Z,68.08
2022-09-01T20:15:54.253Z,67.93
2022-09-01T20:18:29.766Z,68.10
2022-09-01T20:21:00.240Z,68.08
2022-09-01T20:23:52.782Z,68.61
2022-09-01T20:26:29.353Z,68.56
2022-09-01T20:29:14.583Z,68.50
2022-09-01T20:31:45.600Z,69.00
2022-09-01T20:34:32.569Z,68.98
2022-09-01T20:37:06.352Z,69.70
2022-09-01T20:40:00.287Z,69.52
2022-09-01T20:43:04.573Z,69.60
2022-09-01T20:45:32.185Z,70.05
2022-09-01T20:48:02.128Z,69.98
2022-09-01T20:50:43.592Z,69.36
2022-09-01T20:53:22.015Z,69.14
2022-09-01T20:56:02.621Z,69.38
2022-09-01T20:58:32.363Z,69.39
2022-09-01T21:01:28.617Z,69.95
2022-09-01T21:04:35.904Z,69.98
2022-09-01T21:07:13.837Z,70.08
2022-09-01T21:09:43.559Z,70.29
2022-09-01T21:12:27.673Z,70.03
2022-09-01T21:15:32.128Z,70.02
2022-09-01T21:18:26.666Z,70.75
2022-09-01T21:21:18.449Z,70.93
2022-09-01T21:23:45.296Z,70.82
2022-09-01T21:26:12.103Z,70.92
2022-09-01T21:28:40.655Z,70.75
2022-09-01T21:31:09.252Z,70.18
2022-09-01T21:33:36.053Z,69.76
2022-09-01T21:36:03.102Z,69.63
2022-09-01T21:38:29.873Z,69.99
2022-09-01T21:40:59.278Z,69.85
2022-09-01T21:43:34.308Z,69.42
2022-09-01T21:46:02.270Z,69.51
2022-09-01T21:48:30.974Z,70.18
2022-09-01T21:50:57.728Z,70.42
2022-09-01T21:53:24.339Z,70.79
2022-09-01T21:55:51.089Z,71.37
2022-09-01T21:58:18.542Z,71.59
2022-09-01T22:00:47.953Z,70.73
2022-09-01T22:03:14.636Z,70.24
2022-09-01T22:05:42.959Z,70.44
2022-09-01T22:08:12.230Z,70.30
2022-09-01T22:10:47.195Z,70.11
2022-09-01T22:13:14.200Z,70.73
2022-09-01T22:15:46.840Z,70.90
2022-09-01T22:18:14.687Z,70.96
2022-09-01T22:20:41.956Z,71.20
2022-09-01T22:23:09.803Z,71.67
2022-09-01T22:28:06.995Z,71.95
2022-09-01T22:30:34.634Z,71.74
2022-09-01T22:33:02.572Z,71.42
2022-09-01T22:35:29.485Z,71.35
2022-09-01T22:37:56.159Z,71.61
2022-09-01T22:40:22.873Z,71.98
2022-09-01T22:42:51.929Z,72.49
2022-09-01T22:45:18.797Z,72.15
2022-09-01T22:47:45.595Z,72.75
2022-09-01T22:50:12.684Z,72.60
2022-09-01T22:52:39.884Z,72.85
2022-09-01T22:55:08.051Z,72.74
2022-09-01T22:57:35.846Z,72.78
2022-09-01T23:00:08.271Z,72.40
2022-09-01T23:02:35.221Z,72.73
2022-09-01T23:05:01.976Z,73.17
2022-09-01T23:07:28.808Z,72.98
2022-09-01T23:09:55.586Z,73.16
2022-09-01T23:12:22.546Z,73.22
2022-09-01T23:14:49.827Z,73.41
2022-09-01T23:17:16.646Z,73.46
2022-09-01T23:19:43.332Z,73.29
2022-09-01T23:22:10.896Z,73.35
2022-09-01T23:24:37.543Z,73.18
2022-09-01T23:27:04.335Z,73.40
2022-09-01T23:29:31.086Z,73.29
2022-09-01T23:31:58.291Z,73.48
2022-09-01T23:34:24.949Z,73.29
2022-09-01T23:36:51.584Z,73.24
2022-09-01T23:39:18.449Z,73.75
2022-09-01T23:41:45.247Z,73.69
2022-09-01T23:44:12.449Z,73.66
2022-09-01T23:46:42.904Z,73.49
2022-09-01T23:49:10.979Z,73.78
2022-09-01T23:51:39.133Z,73.51
2022-09-01T23:54:06.320Z,73.85
2022-09-01T23:56:33.608Z,73.84
2022-09-01T23:59:00.479Z,73.80
